Time;durP1;ratioP1;P1;durP2;ratioP2;P2;SDS_P1;SDS_P2;PMS_P1;PMS_P2;Temp;Humidity;BMP_temperature;BMP_pressure;BME280_temperature;BME280_humidity;BME280_pressure;Samples;Min_cycle;Max_cycle;Signal;HPM_P1;HPM_P2
2024/03/23 05:02:08;;;;;;;6.80;1.77;;;6.60;99.90;;;;;;6270694;22;20294;-72
2024/03/23 05:04:35;;;;;;;2.90;2.05;;;6.60;99.90;;;;;;6304265;22;20174;-72
2024/03/23 05:07:01;;;;;;;3.90;2.47;;;6.60;99.90;;;;;;6304711;22;20254;-73
2024/03/23 05:09:29;;;;;;;6.47;2.38;;;6.60;99.90;;;;;;6303918;22;20196;-73
2024/03/23 05:11:56;;;;;;;4.88;2.70;;;6.60;99.90;;;;;;6300062;22;20196;-73
2024/03/23 05:14:22;;;;;;;7.07;2.10;;;6.60;99.90;;;;;;6312995;22;20183;-73
2024/03/23 05:16:49;;;;;;;3.73;2.00;;;6.60;99.90;;;;;;6304080;22;20176;-73
2024/03/23 05:19:16;;;;;;;11.05;2.05;;;6.60;99.90;;;;;;6304001;22;20418;-72
2024/03/23 05:21:42;;;;;;;8.13;2.00;;;6.60;99.90;;;;;;6306294;22;20305;-72
2024/03/23 05:24:08;;;;;;;2.83;1.85;;;6.60;99.90;;;;;;6304962;22;20642;-74
2024/03/23 05:26:36;;;;;;;2.40;1.37;;;6.60;99.90;;;;;;6306341;22;20251;-74
2024/03/23 05:29:02;;;;;;;5.25;1.80;;;6.60;99.90;;;;;;6307677;22;20505;-73
2024/03/23 05:31:30;;;;;;;2.60;2.40;;;6.50;99.90;;;;;;6313201;22;20223;-73
2024/03/23 05:33:56;;;;;;;2.97;1.85;;;6.50;99.90;;;;;;6317144;22;20180;-73
2024/03/23 05:36:24;;;;;;;5.85;1.77;;;6.50;99.90;;;;;;6317415;22;20187;-73
2024/03/23 05:38:50;;;;;;;1.85;1.80;;;6.40;99.90;;;;;;6318190;22;20194;-73
2024/03/23 05:41:17;;;;;;;2.03;1.90;;;6.40;99.90;;;;;;6313270;22;20214;-74
2024/03/23 05:43:43;;;;;;;1.75;1.75;;;6.40;99.90;;;;;;6309451;22;20405;-75
2024/03/23 05:46:10;;;;;;;4.73;2.50;;;6.30;99.90;;;;;;6306345;22;20181;-75
2024/03/23 05:48:36;;;;;;;1.80;1.70;;;6.30;99.90;;;;;;6306569;22;20222;-74
2024/03/23 05:51:03;;;;;;;3.13;1.77;;;6.30;99.90;;;;;;6305933;22;20196;-74
2024/03/23 05:53:30;;;;;;;1.25;1.15;;;6.30;99.90;;;;;;6306337;22;20185;-75
2024/03/23 05:56:03;;;;;;;11.65;2.25;;;6.20;99.90;;;;;;6306186;22;20189;-73
2024/03/23 05:58:31;;;;;;;7.30;1.90;;;6.30;99.90;;;;;;6307997;22;20171;-74
2024/03/23 06:01:01;;;;;;;6.43;1.75;;;6.30;99.90;;;;;;6308856;22;20256;-73
2024/03/23 06:03:28;;;;;;;1.90;1.80;;;6.30;99.90;;;;;;6308544;22;20175;-74
2024/03/23 06:05:53;;;;;;;4.13;2.20;;;6.30;99.90;;;;;;6306997;22;20206;-74
2024/03/23 06:08:20;;;;;;;4.83;3.00;;;6.40;99.90;;;;;;6306867;22;20628;-74
2024/03/23 06:10:47;;;;;;;6.45;1.73;;;6.30;99.90;;;;;;6305549;22;20203;-72
2024/03/23 06:13:14;;;;;;;6.57;2.30;;;6.30;99.90;;;;;;6305442;22;20621;-74
2024/03/23 06:15:40;;;;;;;2.10;1.52;;;6.30;99.90;;;;;;6306220;22;20635;-75
2024/03/23 06:18:07;;;;;;;11.43;2.30;;;6.40;99.90;;;;;;6306187;22;20262;-74
2024/03/23 06:20:33;;;;;;;7.25;2.13;;;6.40;99.90;;;;;;6306596;22;20202;-74
2024/03/23 06:23:00;;;;;;;6.50;2.00;;;6.40;99.90;;;;;;6306078;22;20542;-74
2024/03/23 06:25:26;;;;;;;8.38;3.33;;;6.40;99.90;;;;;;6305584;22;20421;-74
2024/03/23 06:27:54;;;;;;;4.73;1.80;;;6.40;99.90;;;;;;6293034;22;20172;-74
2024/03/23 06:30:19;;;;;;;6.95;2.25;;;6.40;99.90;;;;;;6305119;22;20200;-74
2024/03/23 06:32:46;;;;;;;6.10;1.57;;;6.40;99.90;;;;;;6305645;22;20291;-74
2024/03/23 06:35:12;;;;;;;6.95;2.22;;;6.40;99.90;;;;;;6305171;22;20194;-72
2024/03/23 06:37:40;;;;;;;4.73;3.10;;;6.50;99.90;;;;;;6306888;22;20182;-74
2024/03/23 06:40:09;;;;;;;3.92;1.80;;;6.50;99.90;;;;;;6305014;22;20501;-73
2024/03/23 06:42:36;;;;;;;2.17;2.08;;;6.50;99.90;;;;;;6304911;22;20171;-73
2024/03/23 06:45:04;;;;;;;9.57;1.80;;;6.60;99.90;;;;;;6303709;22;20190;-73
2024/03/23 06:47:31;;;;;;;4.70;2.28;;;6.60;99.90;;;;;;6304561;22;20187;-73
2024/03/23 06:49:57;;;;;;;2.45;2.28;;;6.60;99.90;;;;;;6305378;22;20207;-74
2024/03/23 06:52:24;;;;;;;7.70;2.67;;;6.60;99.90;;;;;;6305898;22;20267;-73
2024/03/23 06:54:50;;;;;;;4.25;1.85;;;6.70;99.90;;;;;;6305859;22;20428;-73
2024/03/23 06:57:16;;;;;;;38.20;13.13;;;6.80;99.90;;;;;;6304606;22;20282;-74
2024/03/23 06:59:43;;;;;;;10.83;2.97;;;6.80;99.90;;;;;;6305619;22;20168;-74
2024/03/23 07:02:10;;;;;;;15.43;2.92;;;6.80;99.90;;;;;;6304381;22;20242;-74
2024/03/23 07:04:39;;;;;;;3.60;2.28;;;6.90;99.90;;;;;;6305091;22;20286;-73
2024/03/23 07:07:05;;;;;;;6.65;2.63;;;7.10;99.90;;;;;;6315191;22;20558;-73
2024/03/23 07:09:32;;;;;;;5.03;2.40;;;7.20;99.90;;;;;;6304122;22;20211;-73
2024/03/23 07:11:58;;;;;;;3.78;2.15;;;7.30;99.90;;;;;;6304299;22;20702;-73
2024/03/23 07:14:25;;;;;;;4.00;2.50;;;7.30;99.90;;;;;;6304973;22;20178;-75
2024/03/23 07:16:51;;;;;;;5.82;3.05;;;7.40;99.90;;;;;;6305229;22;20748;-73
2024/03/23 07:19:19;;;;;;;16.00;5.07;;;7.50;99.90;;;;;;6304357;22;20191;-73
2024/03/23 07:21:45;;;;;;;14.95;5.07;;;7.60;99.90;;;;;;6304563;22;20445;-73
2024/03/23 07:24:12;;;;;;;6.40;3.40;;;7.60;99.90;;;;;;6304365;22;20175;-73
2024/03/23 07:26:38;;;;;;;12.55;2.92;;;7.60;99.90;;;;;;6303272;22;20929;-73
2024/03/23 07:29:04;;;;;;;5.10;2.90;;;7.70;99.90;;;;;;6303919;22;20192;-73
2024/03/23 07:31:30;;;;;;;7.03;3.00;;;7.70;99.90;;;;;;6303759;22;20207;-73
2024/03/23 07:33:57;;;;;;;4.88;2.60;;;7.70;99.90;;;;;;6302778;22;20504;-73
2024/03/23 07:36:24;;;;;;;3.97;2.40;;;7.70;99.90;;;;;;6304322;22;20180;-74
2024/03/23 07:38:51;;;;;;;6.30;2.72;;;7.80;99.90;;;;;;6304824;22;20705;-73
2024/03/23 07:41:18;;;;;;;2.13;1.90;;;7.80;99.90;;;;;;6304519;22;20200;-73
2024/03/23 07:43:46;;;;;;;4.07;3.22;;;7.90;99.90;;;;;;6303414;22;20175;-73
2024/03/23 07:46:12;;;;;;;5.75;1.95;;;7.90;99.90;;;;;;6304085;22;20237;-73
2024/03/23 07:48:39;;;;;;;5.32;2.47;;;7.80;99.90;;;;;;6305126;22;20172;-74
2024/03/23 07:51:06;;;;;;;6.22;2.85;;;7.80;99.90;;;;;;6304417;22;20660;-73
2024/03/23 07:53:35;;;;;;;4.85;1.92;;;7.80;99.90;;;;;;6305020;22;20180;-73
2024/03/23 07:56:06;;;;;;;11.15;2.72;;;7.90;99.90;;;;;;6303324;22;20237;-73
2024/03/23 07:58:32;;;;;;;5.13;1.92;;;7.80;99.90;;;;;;6304081;22;20167;-73
2024/03/23 08:01:04;;;;;;;1.58;1.48;;;7.80;99.90;;;;;;6304302;22;20200;-73
2024/03/23 08:03:31;;;;;;;4.78;2.50;;;7.70;99.90;;;;;;6304394;22;20163;-73
2024/03/23 08:05:57;;;;;;;6.43;2.85;;;;;;;;;;6304080;22;20176;-74
2024/03/23 08:08:24;;;;;;;4.38;0.95;;;;;;;;;;6304473;22;20208;-74
2024/03/23 08:10:51;;;;;;;4.13;1.05;;;7.70;99.90;;;;;;6303502;22;20226;-74
2024/03/23 08:13:19;;;;;;;3.13;2.85;;;7.70;99.90;;;;;;6301448;22;20176;-73
2024/03/23 08:15:46;;;;;;;2.65;2.45;;;7.70;99.90;;;;;;6302431;22;20519;-74
2024/03/23 08:18:15;;;;;;;2.15;2.13;;;7.80;99.90;;;;;;6302540;22;20183;-73
2024/03/23 08:20:41;;;;;;;8.55;2.28;;;7.90;99.90;;;;;;6303262;22;20242;-74
2024/03/23 08:23:08;;;;;;;4.43;2.03;;;7.90;99.90;;;;;;6303556;22;20180;-74
2024/03/23 08:25:34;;;;;;;8.20;1.73;;;8.00;99.90;;;;;;6303415;22;20886;-74
2024/03/23 08:28:02;;;;;;;5.25;1.60;;;8.10;99.90;;;;;;6304238;22;20712;-72
2024/03/23 08:30:28;;;;;;;4.43;1.48;;;8.50;99.90;;;;;;6303589;22;20226;-73
2024/03/23 08:32:55;;;;;;;8.65;1.95;;;8.00;99.90;;;;;;6303715;22;20539;-74
2024/03/23 08:35:21;;;;;;;2.72;1.65;;;8.10;99.90;;;;;;6303265;22;20175;-74
2024/03/23 08:37:47;;;;;;;3.40;1.90;;;8.20;99.90;;;;;;6304619;22;20179;-74
2024/03/23 08:40:13;;;;;;;3.33;1.15;;;;;;;;;;6303531;22;20176;-74
2024/03/23 08:42:40;;;;;;;2.42;1.70;;;8.30;99.90;;;;;;6312946;22;20182;-72
2024/03/23 08:45:08;;;;;;;4.10;1.80;;;8.30;99.90;;;;;;6303293;22;20180;-73
2024/03/23 08:47:36;;;;;;;2.15;1.33;;;8.30;99.90;;;;;;6302987;22;20517;-73
2024/03/23 08:50:02;;;;;;;1.45;1.20;;;8.40;99.90;;;;;;6304367;22;20523;-73
2024/03/23 08:52:29;;;;;;;2.20;2.10;;;8.50;99.90;;;;;;6304332;22;20204;-73
2024/03/23 08:54:55;;;;;;;11.43;2.58;;;8.60;99.90;;;;;;6303697;22;20295;-73
2024/03/23 08:57:22;;;;;;;1.48;1.30;;;8.70;99.90;;;;;;6304415;22;20230;-73
2024/03/23 08:59:48;;;;;;;2.25;1.45;;;8.80;99.90;;;;;;6302999;22;20172;-73
2024/03/23 09:02:16;;;;;;;1.73;1.30;;;9.00;99.90;;;;;;6302166;22;20213;-73
2024/03/23 09:04:42;;;;;;;3.97;1.45;;;9.10;99.90;;;;;;6303275;22;20195;-73
2024/03/23 09:07:08;;;;;;;7.60;2.00;;;9.20;99.90;;;;;;6304497;22;20172;-74
2024/03/23 09:09:34;;;;;;;3.97;1.35;;;9.30;99.90;;;;;;6304398;22;20203;-73
2024/03/23 09:12:01;;;;;;;3.07;1.63;;;9.40;99.90;;;;;;6304472;22;20192;-74
2024/03/23 09:14:27;;;;;;;3.65;2.08;;;9.50;99.90;;;;;;6301635;22;20180;-75
2024/03/23 09:16:53;;;;;;;1.30;1.20;;;9.60;99.90;;;;;;6304390;22;20604;-75
2024/03/23 09:19:20;;;;;;;2.58;1.10;;;9.70;99.90;;;;;;6304306;22;20741;-75
2024/03/23 09:21:47;;;;;;;9.35;2.35;;;9.80;99.90;;;;;;6310910;22;20278;-75
2024/03/23 09:24:13;;;;;;;1.40;1.08;;;9.70;99.90;;;;;;6301998;22;20176;-74
2024/03/23 09:26:39;;;;;;;2.10;1.40;;;9.80;99.90;;;;;;6303977;22;20255;-74
2024/03/23 09:29:05;;;;;;;1.27;0.70;;;9.70;99.90;;;;;;6300758;22;20187;-74
2024/03/23 09:31:33;;;;;;;3.23;1.33;;;10.00;99.90;;;;;;6302211;22;20672;-74
2024/03/23 09:33:59;;;;;;;4.75;2.47;;;10.00;99.90;;;;;;6302873;22;20184;-74
2024/03/23 09:36:27;;;;;;;1.70;1.17;;;10.00;99.90;;;;;;6304296;22;20226;-74
2024/03/23 09:38:52;;;;;;;3.28;1.52;;;10.20;99.90;;;;;;6304590;22;20180;-74
2024/03/23 09:41:19;;;;;;;4.80;1.10;;;10.40;99.90;;;;;;6302968;22;20200;-74
2024/03/23 09:43:48;;;;;;;1.35;1.25;;;10.50;99.90;;;;;;6302571;22;20262;-74
2024/03/23 09:46:15;;;;;;;1.57;1.47;;;10.40;99.90;;;;;;6314167;22;20294;-72
2024/03/23 09:48:43;;;;;;;5.80;1.60;;;10.40;99.90;;;;;;6314286;22;20417;-72
2024/03/23 09:51:10;;;;;;;1.05;1.05;;;10.30;99.90;;;;;;6303495;22;20482;-73
2024/03/23 09:53:37;;;;;;;2.58;1.00;;;10.10;99.90;;;;;;6303812;22;20184;-74
2024/03/23 09:56:05;;;;;;;4.35;1.20;;;9.90;99.90;;;;;;6301726;22;20191;-73
2024/03/23 09:58:31;;;;;;;3.60;1.20;;;9.90;99.90;;;;;;6302424;22;20608;-73
2024/03/23 10:00:58;;;;;;;1.35;1.30;;;9.80;99.90;;;;;;6304027;22;20202;-74
2024/03/23 10:03:24;;;;;;;1.60;1.50;;;9.90;99.90;;;;;;6304507;22;20176;-74
2024/03/23 10:06:01;;;;;;;3.00;0.70;;;9.80;99.90;;;;;;6302918;22;20209;-74
2024/03/23 10:08:29;;;;;;;1.45;1.35;;;9.80;99.90;;;;;;6304168;22;20160;-74
2024/03/23 10:10:57;;;;;;;1.10;0.85;;;9.80;99.90;;;;;;6303361;22;20211;-74
2024/03/23 10:13:27;;;;;;;3.40;1.58;;;9.90;99.90;;;;;;6303134;22;20176;-74
2024/03/23 10:15:58;;;;;;;3.03;1.15;;;10.00;99.90;;;;;;6303473;22;20176;-74
2024/03/23 10:18:25;;;;;;;1.95;1.42;;;10.00;99.90;;;;;;6303486;22;20234;-74
2024/03/23 10:20:53;;;;;;;2.25;2.17;;;10.10;99.90;;;;;;6303278;22;20672;-74
2024/03/23 10:23:19;;;;;;;1.48;0.90;;;10.30;99.90;;;;;;6303965;22;20184;-74
2024/03/23 10:25:46;;;;;;;3.87;1.20;;;10.50;99.90;;;;;;6303157;22;20309;-74
2024/03/23 10:28:13;;;;;;;1.20;1.10;;;10.80;99.90;;;;;;6303694;22;20422;-73
2024/03/23 10:30:40;;;;;;;6.43;1.33;;;11.00;99.90;;;;;;6302437;22;20450;-74
2024/03/23 10:33:09;;;;;;;0.93;0.93;;;11.00;99.90;;;;;;6303185;22;20441;-73
2024/03/23 10:35:37;;;;;;;2.97;0.83;;;10.80;99.90;;;;;;6302930;22;20422;-74
2024/03/23 10:38:04;;;;;;;2.80;1.40;;;10.70;99.90;;;;;;6304455;22;20425;-74
2024/03/23 10:40:31;;;;;;;1.40;1.30;;;10.40;99.90;;;;;;6303828;22;20727;-74
2024/03/23 10:42:58;;;;;;;0.75;0.73;;;10.30;99.90;;;;;;6304352;22;20468;-73
2024/03/23 10:45:26;;;;;;;0.82;0.82;;;10.20;99.90;;;;;;6303296;22;20180;-74
2024/03/23 10:47:52;;;;;;;1.23;1.10;;;10.10;99.90;;;;;;6305152;22;20198;-72
2024/03/23 10:50:19;;;;;;;1.60;0.60;;;10.20;99.90;;;;;;6304148;22;20639;-71
2024/03/23 10:52:47;;;;;;;3.75;2.00;;;10.30;99.90;;;;;;6306204;22;20613;-71
2024/03/23 10:55:16;;;;;;;4.18;0.82;;;10.40;99.90;;;;;;6304198;22;20194;-71
2024/03/23 10:57:48;;;;;;;3.80;0.90;;;10.60;99.90;;;;;;6305383;22;20652;-71
2024/03/23 11:00:16;;;;;;;0.70;0.70;;;10.50;99.90;;;;;;6305586;22;20403;-71
2024/03/23 11:02:43;;;;;;;4.20;2.05;;;10.40;99.90;;;;;;6304152;22;20168;-72
2024/03/23 11:05:32;;;;;;;3.13;2.03;;;10.00;99.90;;;;;;6305290;22;20231;-72
2024/03/23 11:07:57;;;;;;;2.88;1.40;;;10.10;99.90;;;;;;6305102;22;20175;-72
2024/03/23 11:10:26;;;;;;;1.47;1.37;;;10.10;99.90;;;;;;6314181;22;20195;-72
2024/03/23 11:12:52;;;;;;;1.48;1.15;;;10.20;99.90;;;;;;6304041;22;20609;-72
2024/03/23 11:15:19;;;;;;;1.60;1.08;;;10.10;99.90;;;;;;6304808;22;20172;-72
2024/03/23 11:18:03;;;;;;;4.13;1.40;;;10.20;99.90;;;;;;6305502;22;20646;-71
2024/03/23 11:20:33;;;;;;;1.27;0.93;;;10.30;99.90;;;;;;6303556;22;20227;-72
2024/03/23 11:22:59;;;;;;;1.20;1.10;;;10.30;99.90;;;;;;6304166;22;20176;-72
2024/03/23 11:25:27;;;;;;;5.45;1.58;;;10.50;99.90;;;;;;6303876;22;20203;-74
2024/03/23 11:27:55;;;;;;;1.10;1.00;;;10.50;99.90;;;;;;6304428;22;20634;-74
2024/03/23 11:30:22;;;;;;;1.30;1.30;;;10.70;99.90;;;;;;6304721;22;20524;-73
2024/03/23 11:32:50;;;;;;;4.40;1.50;;;10.80;99.90;;;;;;6304536;22;20225;-73
2024/03/23 11:35:28;;;;;;;1.87;1.00;;;11.00;99.90;;;;;;6303423;22;20422;-73
2024/03/23 11:38:07;;;;;;;1.13;1.07;;;11.10;99.90;;;;;;6303526;22;20422;-73
2024/03/23 11:40:35;;;;;;;1.63;0.80;;;11.00;99.90;;;;;;6297953;22;20434;-73
2024/03/23 11:43:02;;;;;;;2.57;1.10;;;10.70;99.90;;;;;;6304213;22;20891;-73
2024/03/23 11:45:30;;;;;;;0.65;0.57;;;10.40;99.90;;;;;;6299643;22;20424;-73
2024/03/23 11:48:03;;;;;;;5.93;0.85;;;10.00;99.90;;;;;;6303748;22;20270;-73
2024/03/23 11:50:31;;;;;;;1.05;0.82;;;9.50;99.90;;;;;;6303255;22;20199;-73
2024/03/23 11:53:13;;;;;;;1.50;0.85;;;9.20;99.90;;;;;;6303251;22;20175;-73
2024/03/23 11:55:44;;;;;;;2.70;1.55;;;8.90;99.90;;;;;;6302533;22;20497;-72
2024/03/23 11:58:10;;;;;;;6.38;1.45;;;8.70;99.90;;;;;;6302197;22;20215;-74
2024/03/23 12:00:37;;;;;;;7.82;2.38;;;8.60;99.90;;;;;;6302122;22;20381;-72
2024/03/23 12:03:04;;;;;;;2.30;2.13;;;8.70;99.90;;;;;;6301476;22;20192;-73
2024/03/23 12:05:32;;;;;;;1.60;1.38;;;8.80;99.90;;;;;;6302880;22;20175;-72
2024/03/23 12:08:17;;;;;;;1.38;1.27;;;8.80;99.90;;;;;;6303380;22;20184;-74
2024/03/23 12:10:45;;;;;;;1.60;1.20;;;8.90;99.90;;;;;;6304812;22;20254;-73
2024/03/23 12:13:12;;;;;;;2.15;2.05;;;8.90;99.90;;;;;;6305289;22;20179;-72
2024/03/23 12:15:39;;;;;;;1.88;1.00;;;9.10;99.90;;;;;;6305548;22;20186;-72
2024/03/23 12:18:09;;;;;;;4.65;1.50;;;9.20;99.90;;;;;;6305176;22;20214;-72
2024/03/23 12:20:37;;;;;;;1.15;1.15;;;9.20;99.90;;;;;;6302882;22;20200;-73
2024/03/23 12:23:08;;;;;;;1.67;1.40;;;9.40;99.90;;;;;;6306487;22;20176;-73
2024/03/23 12:25:35;;;;;;;1.17;1.17;;;9.60;99.90;;;;;;6306186;22;20182;-71
2024/03/23 12:28:02;;;;;;;2.20;2.10;;;9.60;99.90;;;;;;6307911;22;20251;-73
2024/03/23 12:30:27;;;;;;;2.50;1.50;;;9.70;99.90;;;;;;6306819;22;20290;-71
2024/03/23 12:32:54;;;;;;;1.57;1.57;;;9.80;99.90;;;;;;6306185;22;20172;-72
2024/03/23 12:35:20;;;;;;;2.72;2.20;;;9.90;99.90;;;;;;6305179;22;20184;-72
2024/03/23 12:37:48;;;;;;;5.10;1.50;;;10.00;99.90;;;;;;6302542;22;20938;-71
2024/03/23 12:40:14;;;;;;;2.25;1.70;;;10.10;99.90;;;;;;6302175;22;20914;-71
2024/03/23 12:42:41;;;;;;;1.10;1.00;;;10.00;99.90;;;;;;6302574;22;20175;-70
2024/03/23 12:45:08;;;;;;;1.35;1.35;;;10.00;99.90;;;;;;6301870;22;20797;-70
2024/03/23 12:47:34;;;;;;;2.50;1.50;;;10.00;99.90;;;;;;6302969;22;20172;-73
2024/03/23 12:50:01;;;;;;;1.52;1.42;;;10.00;99.90;;;;;;6301655;22;20207;-73
2024/03/23 12:52:28;;;;;;;5.70;1.60;;;10.00;99.90;;;;;;6302903;22;20192;-73
2024/03/23 12:54:56;;;;;;;1.02;1.02;;;9.90;99.90;;;;;;6302277;22;20260;-73
2024/03/23 12:57:24;;;;;;;2.58;1.70;;;9.90;99.90;;;;;;6302417;22;20179;-74
2024/03/23 12:59:51;;;;;;;8.80;1.30;;;9.90;99.90;;;;;;6301994;22;20180;-73
2024/03/23 13:02:19;;;;;;;1.38;1.30;;;9.80;99.90;;;;;;6301388;22;20214;-72
2024/03/23 13:04:45;;;;;;;1.40;1.40;;;9.90;99.90;;;;;;6302006;22;20180;-73
2024/03/23 13:07:12;;;;;;;2.95;1.67;;;9.90;99.90;;;;;;6303074;22;20254;-73
2024/03/23 13:09:38;;;;;;;0.98;0.98;;;10.00;99.90;;;;;;6313653;22;20596;-73
2024/03/23 13:12:07;;;;;;;1.37;1.37;;;;;;;;;;6314671;22;20200;-73
2024/03/23 13:14:33;;;;;;;0.93;0.93;;;9.80;99.90;;;;;;6302566;22;20233;-73
2024/03/23 13:17:00;;;;;;;1.53;1.43;;;10.10;99.90;;;;;;6305487;22;20160;-72
2024/03/23 13:19:27;;;;;;;1.17;1.00;;;9.90;99.90;;;;;;6309586;22;20414;-73
2024/03/23 13:21:54;;;;;;;1.00;0.98;;;9.60;99.90;;;;;;6305849;22;20188;-72
2024/03/23 13:24:22;;;;;;;0.70;0.55;;;9.30;99.90;;;;;;6306459;22;20186;-73
2024/03/23 13:26:50;;;;;;;1.50;1.40;;;9.00;99.90;;;;;;6302891;22;20207;-74
2024/03/23 13:29:17;;;;;;;0.43;0.43;;;8.80;99.90;;;;;;6301828;22;20193;-74
2024/03/23 13:31:43;;;;;;;0.82;0.82;;;8.50;99.90;;;;;;6302015;22;20253;-72
2024/03/23 13:34:09;;;;;;;0.60;0.60;;;8.20;99.90;;;;;;6302127;22;20504;-74
2024/03/23 13:36:36;;;;;;;2.67;0.90;;;8.00;99.90;;;;;;6301900;22;20172;-72
2024/03/23 13:39:05;;;;;;;0.68;0.68;;;7.90;99.90;;;;;;6301837;22;20476;-72
2024/03/23 13:41:32;;;;;;;0.60;0.60;;;7.70;99.90;;;;;;6302028;22;20188;-72
2024/03/23 13:43:58;;;;;;;2.20;1.10;;;7.60;99.90;;;;;;6301367;22;20176;-72
2024/03/23 13:46:27;;;;;;;0.47;0.47;;;7.50;99.90;;;;;;6299664;22;20182;-72
2024/03/23 13:48:53;;;;;;;4.13;0.85;;;7.40;99.90;;;;;;6301731;22;20422;-73
2024/03/23 13:51:25;;;;;;;0.93;0.93;;;7.30;99.90;;;;;;6301751;22;20204;-71
2024/03/23 13:53:51;;;;;;;0.80;0.80;;;;;;;;;;6301963;22;20172;-72
2024/03/23 13:56:18;;;;;;;0.75;0.75;;;7.40;99.90;;;;;;6301044;22;20175;-72
2024/03/23 13:58:46;;;;;;;0.93;0.93;;;7.30;99.90;;;;;;6300551;22;20179;-72
2024/03/23 14:01:13;;;;;;;0.82;0.82;;;7.30;99.90;;;;;;6301202;22;20204;-73
2024/03/23 14:03:41;;;;;;;1.15;0.57;;;7.40;99.90;;;;;;6302085;22;20187;-71
2024/03/23 14:06:08;;;;;;;0.75;0.57;;;7.40;99.90;;;;;;6300015;22;20179;-72
2024/03/23 14:08:35;;;;;;;0.25;0.25;;;7.20;99.90;;;;;;6302790;22;20188;-74
2024/03/23 14:11:03;;;;;;;0.25;0.25;;;7.10;99.90;;;;;;6303174;22;20207;-72
2024/03/23 14:13:29;;;;;;;0.20;0.20;;;6.90;99.90;;;;;;6302032;22;20258;-73
2024/03/23 14:15:56;;;;;;;0.40;0.40;;;6.70;99.90;;;;;;6302938;22;20195;-73
2024/03/23 14:18:22;;;;;;;0.28;0.28;;;6.40;99.90;;;;;;6304159;22;20417;-72
2024/03/23 14:20:50;;;;;;;1.58;1.48;;;6.20;99.90;;;;;;6303767;22;20199;-72
2024/03/23 14:23:16;;;;;;;0.30;0.30;;;6.00;99.90;;;;;;6303349;22;20183;-72
2024/03/23 14:25:43;;;;;;;0.30;0.30;;;5.90;99.90;;;;;;6305129;22;20266;-72
2024/03/23 14:28:14;;;;;;;1.10;1.08;;;5.90;99.90;;;;;;6304735;22;20190;-72
2024/03/23 14:30:41;;;;;;;4.32;0.47;;;5.90;99.90;;;;;;6304381;22;20276;-72
2024/03/23 14:33:07;;;;;;;1.10;0.30;;;;;;;;;;6304936;22;20182;-71
2024/03/23 14:35:33;;;;;;;0.55;0.55;;;5.90;99.90;;;;;;6303769;22;20241;-75
2024/03/23 14:38:00;;;;;;;0.45;0.40;;;5.90;99.90;;;;;;6305097;22;20183;-73
2024/03/23 14:40:27;;;;;;;0.60;0.60;;;5.90;99.90;;;;;;6303888;22;20179;-71
2024/03/23 14:42:53;;;;;;;0.77;0.77;;;6.00;99.90;;;;;;6304332;22;20184;-72
2024/03/23 14:45:20;;;;;;;0.93;0.63;;;6.10;99.90;;;;;;6303760;22;20230;-72
2024/03/23 14:47:46;;;;;;;0.30;0.30;;;6.20;99.90;;;;;;6300245;22;21216;-72
2024/03/23 14:50:15;;;;;;;0.30;0.30;;;6.20;99.90;;;;;;6302362;22;20186;-72
2024/03/23 14:52:41;;;;;;;0.68;0.68;;;6.30;99.90;;;;;;6303838;22;20259;-72
2024/03/23 14:55:09;;;;;;;0.75;0.70;;;6.30;99.90;;;;;;6312673;22;20175;-75
2024/03/23 14:57:35;;;;;;;0.40;0.40;;;6.30;99.90;;;;;;6303117;22;20180;-73
2024/03/23 15:00:04;;;;;;;1.23;1.13;;;6.30;99.90;;;;;;6297822;22;20268;-74
2024/03/23 15:02:31;;;;;;;0.47;0.25;;;6.40;99.90;;;;;;6302209;22;20265;-72
2024/03/23 15:04:59;;;;;;;0.45;0.45;;;6.50;99.90;;;;;;6302576;22;20214;-73
2024/03/23 15:07:24;;;;;;;0.50;0.50;;;6.70;99.90;;;;;;6303686;22;20222;-72
2024/03/23 15:09:51;;;;;;;0.60;0.60;;;6.80;99.90;;;;;;6302545;22;20250;-72
2024/03/23 15:12:18;;;;;;;1.58;0.85;;;6.90;99.90;;;;;;6302860;22;20954;-72
2024/03/23 15:14:45;;;;;;;0.63;0.63;;;7.00;99.90;;;;;;6300198;22;20556;-72
2024/03/23 15:17:11;;;;;;;0.70;0.70;;;7.00;99.90;;;;;;6301162;22;20208;-73
2024/03/23 15:19:38;;;;;;;0.97;0.90;;;7.00;99.90;;;;;;6302987;22;20455;-72
2024/03/23 15:22:04;;;;;;;0.45;0.45;;;6.90;99.90;;;;;;6302527;22;20199;-75
2024/03/23 15:24:31;;;;;;;0.40;0.40;;;6.90;99.90;;;;;;6303329;22;20172;-72
2024/03/23 15:26:57;;;;;;;0.28;0.28;;;;;;;;;;6302987;22;20963;-72
2024/03/23 15:29:25;;;;;;;0.65;0.65;;;7.00;99.90;;;;;;6301872;22;20222;-72
2024/03/23 15:31:52;;;;;;;0.63;0.63;;;7.00;99.90;;;;;;6302346;22;20218;-72
2024/03/23 15:34:21;;;;;;;0.75;0.75;;;7.10;99.90;;;;;;6302426;22;20179;-73
2024/03/23 15:36:47;;;;;;;0.63;0.63;;;7.00;99.90;;;;;;6302603;22;20180;-72
2024/03/23 15:39:14;;;;;;;2.88;1.30;;;7.10;99.90;;;;;;6302529;22;20172;-72
2024/03/23 15:41:40;;;;;;;0.75;0.60;;;;;;;;;;6302191;22;20199;-74
2024/03/23 15:44:07;;;;;;;1.38;1.15;;;7.20;99.90;;;;;;6302615;22;20180;-72
2024/03/23 15:46:34;;;;;;;0.95;0.65;;;7.20;99.90;;;;;;6302308;22;20187;-70
2024/03/23 15:49:01;;;;;;;0.85;0.68;;;7.30;99.90;;;;;;6301104;22;20206;-76
2024/03/23 15:51:32;;;;;;;0.75;0.75;;;;;;;;;;6312311;22;20585;-72
2024/03/23 15:53:59;;;;;;;0.98;0.98;;;7.20;99.90;;;;;;6313268;22;20156;-73
2024/03/23 15:56:25;;;;;;;0.55;0.55;;;6.90;99.90;;;;;;6302068;22;20184;-71
2024/03/23 15:58:51;;;;;;;0.67;0.60;;;7.10;99.90;;;;;;6301812;22;20185;-72
2024/03/23 16:01:18;;;;;;;0.85;0.85;;;;;;;;;;6302457;22;20728;-72
2024/03/23 16:03:46;;;;;;;0.90;0.63;;;7.30;99.90;;;;;;6302587;22;20565;-72
2024/03/23 16:06:12;;;;;;;0.45;0.45;;;;;;;;;;6302057;22;20186;-73
2024/03/23 16:08:39;;;;;;;2.47;0.70;;;7.50;99.90;;;;;;6303310;22;20187;-72
2024/03/23 16:11:05;;;;;;;4.18;0.85;;;7.50;99.90;;;;;;6301989;22;20232;-72
2024/03/23 16:13:33;;;;;;;0.68;0.68;;;7.50;99.90;;;;;;6302613;22;20205;-72
2024/03/23 16:16:00;;;;;;;0.82;0.82;;;7.50;99.90;;;;;;6301975;22;20198;-73
2024/03/23 16:18:27;;;;;;;0.75;0.52;;;7.50;99.90;;;;;;6299216;22;20183;-72
2024/03/23 16:20:55;;;;;;;0.68;0.50;;;7.50;99.90;;;;;;6302909;22;20198;-73
2024/03/23 16:23:22;;;;;;;0.98;0.98;;;7.50;99.90;;;;;;6303976;22;20182;-73
2024/03/23 16:25:55;;;;;;;0.50;0.50;;;7.40;99.90;;;;;;6303112;22;20208;-72
2024/03/23 16:28:25;;;;;;;0.50;0.50;;;7.30;99.90;;;;;;6314200;22;20217;-72
2024/03/23 16:30:55;;;;;;;0.77;0.77;;;7.30;99.90;;;;;;6302811;22;20208;-72
2024/03/23 16:33:22;;;;;;;1.75;1.65;;;7.30;99.90;;;;;;6304050;22;20191;-73
2024/03/23 16:35:56;;;;;;;1.23;1.23;;;7.20;99.90;;;;;;6311978;22;20182;-73
2024/03/23 16:38:23;;;;;;;1.67;1.00;;;7.20;99.90;;;;;;6303589;22;20245;-72
2024/03/23 16:40:56;;;;;;;2.50;2.40;;;7.20;99.90;;;;;;6301781;22;20528;-72
2024/03/23 16:43:23;;;;;;;1.10;1.00;;;7.20;99.90;;;;;;6302115;22;20210;-71
2024/03/23 16:45:56;;;;;;;3.55;1.15;;;6.90;99.90;;;;;;6303772;22;20246;-71
2024/03/23 16:48:23;;;;;;;0.30;0.30;;;6.50;99.90;;;;;;6303609;22;20185;-72
2024/03/23 16:50:49;;;;;;;0.40;0.40;;;6.10;99.90;;;;;;6300909;22;20691;-73
2024/03/23 16:53:17;;;;;;;0.80;0.80;;;5.90;99.90;;;;;;6299202;22;20183;-73
2024/03/23 16:55:43;;;;;;;1.40;0.80;;;5.70;99.90;;;;;;6302331;22;20527;-72
2024/03/23 16:58:10;;;;;;;1.15;0.60;;;5.80;99.90;;;;;;6303017;22;20188;-72
2024/03/23 17:00:36;;;;;;;0.60;0.60;;;5.80;99.90;;;;;;6302722;22;20211;-74
2024/03/23 17:03:03;;;;;;;0.20;0.20;;;5.90;99.90;;;;;;6299085;22;20257;-73
2024/03/23 17:05:29;;;;;;;0.77;0.77;;;5.90;99.90;;;;;;6298990;22;20182;-71
2024/03/23 17:07:57;;;;;;;0.68;0.50;;;;;;;;;;6301239;22;20182;-72
2024/03/23 17:10:24;;;;;;;3.50;0.65;;;6.00;99.90;;;;;;6301329;22;20194;-73
2024/03/23 17:12:51;;;;;;;0.63;0.63;;;6.00;99.90;;;;;;6302831;22;20452;-73
2024/03/23 17:15:21;;;;;;;0.55;0.55;;;5.80;99.90;;;;;;6301861;22;20212;-73
2024/03/23 17:17:48;;;;;;;1.20;1.02;;;5.80;99.90;;;;;;6301051;22;20175;-74
2024/03/23 17:20:14;;;;;;;0.55;0.50;;;5.70;99.90;;;;;;6302162;22;20642;-74
2024/03/23 17:22:41;;;;;;;1.85;0.70;;;5.60;99.90;;;;;;6312933;22;20175;-74
2024/03/23 17:25:07;;;;;;;0.93;0.93;;;5.40;99.90;;;;;;6301833;22;20194;-73
2024/03/23 17:27:35;;;;;;;0.65;0.65;;;5.30;99.90;;;;;;6302861;22;20180;-74
2024/03/23 17:30:02;;;;;;;0.52;0.52;;;5.20;99.90;;;;;;6302045;22;20183;-71
2024/03/23 17:32:29;;;;;;;0.93;0.93;;;5.10;99.90;;;;;;6303049;22;20507;-74
2024/03/23 17:34:54;;;;;;;1.38;1.30;;;5.10;99.90;;;;;;6301254;22;20177;-73
2024/03/23 17:37:22;;;;;;;3.90;1.50;;;5.10;99.90;;;;;;6303005;22;20625;-73
2024/03/23 17:39:48;;;;;;;1.50;1.40;;;5.00;99.90;;;;;;6302663;22;20211;-73
2024/03/23 17:42:15;;;;;;;1.03;0.80;;;5.00;99.90;;;;;;6303245;22;20211;-73
2024/03/23 17:44:42;;;;;;;3.53;1.88;;;5.00;99.90;;;;;;6301884;22;20426;-73
2024/03/23 17:47:09;;;;;;;0.30;0.30;;;4.90;99.90;;;;;;6304352;22;20271;-72
2024/03/23 17:49:35;;;;;;;1.10;0.70;;;4.90;99.90;;;;;;6303744;22;20635;-73
2024/03/23 17:52:11;;;;;;;0.85;0.85;;;4.80;99.90;;;;;;6303375;22;20253;-73
2024/03/23 17:54:38;;;;;;;0.43;0.43;;;4.70;99.90;;;;;;6304976;22;20221;-74
2024/03/23 17:57:05;;;;;;;1.00;1.00;;;4.70;99.90;;;;;;6305996;22;20210;-74
2024/03/23 17:59:31;;;;;;;3.17;2.92;;;4.60;99.90;;;;;;6304389;22;20231;-74